createdAt,value
2023-04-19T00:02:25.926Z,69.02
2023-04-19T00:04:55.789Z,69.51
2023-04-19T00:07:23.594Z,69.50
2023-04-19T00:09:51.565Z,69.63
2023-04-19T00:12:19.305Z,70.26
2023-04-19T00:14:47.219Z,70.10
2023-04-19T00:17:14.960Z,70.32
2023-04-19T00:19:43.182Z,70.44
2023-04-19T00:22:10.801Z,70.82
2023-04-19T00:24:38.740Z,71.14
2023-04-19T00:27:06.422Z,71.31
2023-04-19T00:29:34.573Z,72.09
2023-04-19T00:32:02.346Z,72.43
2023-04-19T00:34:31.841Z,73.22
2023-04-19T00:36:59.504Z,74.16
2023-04-19T00:39:27.478Z,75.87
2023-04-19T00:41:57.545Z,76.69
2023-04-19T00:44:25.553Z,78.26
2023-04-19T00:46:56.489Z,78.82
2023-04-19T00:49:25.376Z,79.29
2023-04-19T00:51:53.551Z,79.80
2023-04-19T00:54:21.614Z,80.34
2023-04-19T00:56:51.515Z,80.85
2023-04-19T00:59:19.520Z,81.21
2023-04-19T01:01:47.646Z,82.04
2023-04-19T01:04:17.293Z,83.02
2023-04-19T01:06:45.373Z,83.32
2023-04-19T01:09:13.342Z,84.40
2023-04-19T01:11:43.423Z,85.84
2023-04-19T01:14:11.709Z,86.69
2023-04-19T01:16:39.615Z,88.02
2023-04-19T01:19:07.558Z,88.88
2023-04-19T01:21:39.452Z,89.86
2023-04-19T01:24:07.698Z,91.07
2023-04-19T01:26:35.434Z,92.02
2023-04-19T01:29:03.970Z,92.47
2023-04-19T01:31:31.805Z,93.97
2023-04-19T01:33:59.785Z,95.08
2023-04-19T01:36:27.921Z,96.19
2023-04-19T01:38:56.925Z,96.89
2023-04-19T01:41:27.215Z,97.96
2023-04-19T01:43:55.417Z,98.65
2023-04-19T01:46:23.250Z,99.79
2023-04-19T01:48:52.426Z,100.00
2023-04-19T01:51:22.106Z,100.00
2023-04-19T01:53:54.588Z,100.00
2023-04-19T01:56:23.973Z,100.00
2023-04-19T01:58:51.978Z,100.00
2023-04-19T02:01:20.236Z,100.00
2023-04-19T02:03:48.408Z,100.00
2023-04-19T02:06:16.194Z,100.00
2023-04-19T02:08:44.211Z,100.00
2023-04-19T02:11:16.564Z,100.00
2023-04-19T02:13:44.634Z,100.00
2023-04-19T02:16:12.506Z,100.00
2023-04-19T02:18:40.721Z,100.00
2023-04-19T02:21:09.957Z,100.00
2023-04-19T02:23:37.964Z,100.00
2023-04-19T02:26:05.796Z,100.00
2023-04-19T02:28:34.030Z,100.00
2023-04-19T02:31:06.184Z,100.00
2023-04-19T02:33:36.522Z,100.00
2023-04-19T02:36:04.683Z,100.00
2023-04-19T02:38:34.126Z,100.00
2023-04-19T02:41:04.391Z,100.00
2023-04-19T02:43:32.366Z,100.00
2023-04-19T02:46:00.073Z,100.00
2023-04-19T02:48:28.125Z,100.00
2023-04-19T02:50:55.980Z,100.00
2023-04-19T02:53:24.800Z,100.00
2023-04-19T02:55:52.559Z,100.00
2023-04-19T02:58:21.561Z,100.00
2023-04-19T03:01:01.311Z,100.00
2023-04-19T03:03:29.270Z,100.00
2023-04-19T03:05:57.566Z,100.00
2023-04-19T03:08:25.594Z,100.00
2023-04-19T03:10:53.385Z,100.00
2023-04-19T03:13:21.359Z,100.00
2023-04-19T03:15:49.322Z,100.00
2023-04-19T03:18:18.586Z,100.00
2023-04-19T03:20:47.265Z,100.00
2023-04-19T03:23:15.214Z,100.00
2023-04-19T03:25:43.147Z,100.00
2023-04-19T03:28:22.072Z,100.00
2023-04-19T03:31:09.757Z,100.00
2023-04-19T03:33:38.199Z,100.00
2023-04-19T03:36:07.105Z,100.00
2023-04-19T03:38:36.665Z,100.00
2023-04-19T03:41:06.180Z,100.00
2023-04-19T03:43:38.199Z,100.00
2023-04-19T03:46:05.939Z,100.00
2023-04-19T03:48:35.734Z,100.00
2023-04-19T03:51:03.703Z,100.00
2023-04-19T03:53:31.830Z,100.00
2023-04-19T03:55:59.551Z,100.00
2023-04-19T03:58:27.620Z,100.00
2023-04-19T04:01:02.841Z,100.00
2023-04-19T04:03:31.752Z,100.00
2023-04-19T04:05:59.800Z,100.00
2023-04-19T04:08:27.692Z,100.00
2023-04-19T04:10:55.669Z,100.00
2023-04-19T04:13:23.628Z,100.00
2023-04-19T04:16:04.000Z,100.00
2023-04-19T04:18:32.575Z,100.00
2023-04-19T04:21:01.402Z,100.00
2023-04-19T04:23:29.740Z,100.00
2023-04-19T04:26:01.833Z,100.00
2023-04-19T04:28:44.749Z,100.00
2023-04-19T04:31:13.166Z,100.00
2023-04-19T04:33:42.340Z,100.00
2023-04-19T04:36:13.651Z,100.00
2023-04-19T04:38:43.062Z,100.00
2023-04-19T04:41:12.508Z,100.00
2023-04-19T04:43:40.475Z,100.00
2023-04-19T04:46:09.125Z,100.00
2023-04-19T04:48:41.509Z,100.00
2023-04-19T04:51:09.250Z,100.00
2023-04-19T04:53:37.581Z,100.00
2023-04-19T04:56:07.034Z,100.00
2023-04-19T04:58:37.478Z,100.00
2023-04-19T05:01:08.445Z,100.00
2023-04-19T05:03:40.606Z,100.00
2023-04-19T05:06:13.054Z,100.00
2023-04-19T05:08:40.966Z,100.00
2023-04-19T05:11:28.656Z,100.00
2023-04-19T05:13:56.563Z,100.00
2023-04-19T05:16:27.222Z,100.00
2023-04-19T05:18:56.104Z,100.00
2023-04-19T05:21:26.899Z,100.00
2023-04-19T05:23:55.521Z,100.00
2023-04-19T05:26:24.455Z,100.00
2023-04-19T05:28:53.631Z,100.00
2023-04-19T05:31:28.567Z,100.00
2023-04-19T05:34:08.035Z,100.00
2023-04-19T05:36:35.724Z,100.00
2023-04-19T05:39:03.833Z,100.00
2023-04-19T05:41:32.091Z,100.00
2023-04-19T05:44:00.180Z,100.00
2023-04-19T05:46:27.868Z,99.93
2023-04-19T05:48:57.678Z,99.79
2023-04-19T05:51:28.370Z,99.22
2023-04-19T05:54:05.579Z,98.01
2023-04-19T05:56:33.576Z,97.18
2023-04-19T05:59:01.728Z,97.61
2023-04-19T06:01:29.736Z,96.25
2023-04-19T06:03:58.021Z,96.29
2023-04-19T06:06:26.153Z,94.96
2023-04-19T06:08:55.124Z,93.41
2023-04-19T06:11:29.247Z,93.54
2023-04-19T06:14:03.552Z,92.85
2023-04-19T06:16:31.399Z,91.53
2023-04-19T06:18:59.459Z,90.96
2023-04-19T06:21:29.885Z,88.51
2023-04-19T06:23:57.816Z,89.02
2023-04-19T06:26:25.537Z,89.42
2023-04-19T06:28:53.570Z,88.54
2023-04-19T06:31:21.255Z,87.02
2023-04-19T06:33:49.222Z,85.53
2023-04-19T06:36:16.883Z,83.98
2023-04-19T06:38:46.326Z,82.38
2023-04-19T06:41:14.113Z,81.16
2023-04-19T06:43:42.929Z,81.35
2023-04-19T06:46:11.434Z,81.32
2023-04-19T06:48:39.370Z,82.28
2023-04-19T06:51:07.196Z,83.75
2023-04-19T06:53:35.790Z,84.41
2023-04-19T06:56:05.072Z,83.55
2023-04-19T06:58:35.216Z,84.03
2023-04-19T07:01:05.075Z,84.18
2023-04-19T07:03:33.371Z,85.42
2023-04-19T07:06:01.220Z,85.32
2023-04-19T07:08:42.331Z,84.71
2023-04-19T07:11:16.264Z,84.20
2023-04-19T07:13:44.294Z,84.07
2023-04-19T07:16:12.617Z,84.33
2023-04-19T07:18:40.670Z,84.56
2023-04-19T07:21:08.356Z,84.49
2023-04-19T07:23:36.331Z,83.37
2023-04-19T07:26:04.120Z,83.59
2023-04-19T07:28:32.227Z,82.23
2023-04-19T07:31:01.123Z,81.56
2023-04-19T07:33:29.677Z,80.95
2023-04-19T07:35:57.407Z,80.58
2023-04-19T07:38:25.405Z,80.25
2023-04-19T07:40:53.281Z,79.24
2023-04-19T07:43:21.386Z,78.59
2023-04-19T07:45:49.075Z,77.61
2023-04-19T07:48:17.017Z,75.00
2023-04-19T07:50:44.628Z,73.33
2023-04-19T07:53:12.620Z,72.31
2023-04-19T07:55:40.330Z,72.81
2023-04-19T07:58:08.314Z,71.71
2023-04-19T08:00:37.913Z,70.82
2023-04-19T08:03:06.607Z,70.15
2023-04-19T08:05:35.208Z,68.59
2023-04-19T08:08:03.305Z,69.22
2023-04-19T08:10:31.903Z,69.64
2023-04-19T08:13:05.684Z,70.19
2023-04-19T08:18:06.450Z,71.73
2023-04-19T08:20:34.195Z,71.52
2023-04-19T08:23:10.381Z,71.72
2023-04-19T08:25:46.236Z,71.39
2023-04-19T08:28:14.257Z,71.16
2023-04-19T08:30:42.071Z,70.28
2023-04-19T08:33:10.961Z,69.56
2023-04-19T08:35:41.462Z,68.50
2023-04-19T08:38:10.681Z,68.00
2023-04-19T08:40:52.698Z,67.77
2023-04-19T08:43:21.682Z,68.56
2023-04-19T08:45:50.933Z,69.91
2023-04-19T08:48:19.436Z,68.84
2023-04-19T08:51:00.659Z,68.29
2023-04-19T08:53:35.720Z,68.12
2023-04-19T08:56:17.370Z,68.70
2023-04-19T09:01:31.165Z,69.72
2023-04-19T09:04:21.029Z,70.71
2023-04-19T09:06:54.867Z,70.98
2023-04-19T09:09:35.533Z,71.62
2023-04-19T09:12:17.836Z,71.67
2023-04-19T09:15:00.675Z,72.47
2023-04-19T09:17:31.154Z,72.61
2023-04-19T09:19:59.670Z,72.35
2023-04-19T09:22:27.610Z,72.62
2023-04-19T09:27:31.674Z,72.31
2023-04-19T09:30:01.860Z,72.53
2023-04-19T09:32:45.559Z,72.87
2023-04-19T09:35:13.667Z,73.31
2023-04-19T09:38:01.894Z,73.34
2023-04-19T09:40:29.811Z,73.79
2023-04-19T09:43:07.340Z,74.23
2023-04-19T09:45:46.501Z,74.16
2023-04-19T09:48:14.365Z,74.52
2023-04-19T09:51:14.413Z,74.84
2023-04-19T09:53:44.080Z,75.46
2023-04-19T09:56:12.963Z,75.78
2023-04-19T09:58:51.274Z,75.70
2023-04-19T10:01:25.904Z,75.95
2023-04-19T10:03:55.571Z,75.65
2023-04-19T10:06:39.998Z,75.52
2023-04-19T10:09:08.747Z,75.22
2023-04-19T10:11:43.049Z,75.06
2023-04-19T10:14:13.259Z,75.08
2023-04-19T10:16:41.251Z,75.25
2023-04-19T10:19:17.720Z,75.38
2023-04-19T10:21:47.903Z,75.60
2023-04-19T10:24:18.589Z,75.28
2023-04-19T10:27:05.355Z,74.73
2023-04-19T10:29:51.904Z,74.32
2023-04-19T10:32:19.970Z,73.59
2023-04-19T10:34:47.804Z,73.54
2023-04-19T10:37:17.296Z,72.98
2023-04-19T10:39:45.957Z,72.15
2023-04-19T10:42:14.021Z,71.97
2023-04-19T10:44:41.660Z,72.35
2023-04-19T10:47:10.427Z,71.45
2023-04-19T10:49:47.164Z,70.52
2023-04-19T10:52:29.721Z,69.86
2023-04-19T10:54:57.588Z,68.25
2023-04-19T10:57:25.646Z,66.22
2023-04-19T11:00:18.517Z,64.41
2023-04-19T11:02:46.632Z,62.49
2023-04-19T11:05:14.565Z,60.55
2023-04-19T11:07:43.111Z,59.49
2023-04-19T11:10:11.830Z,58.47
2023-04-19T11:12:43.881Z,57.81
2023-04-19T11:15:12.116Z,56.34
2023-04-19T11:17:40.340Z,55.74
2023-04-19T11:20:11.809Z,56.54
2023-04-19T11:22:47.297Z,55.09
2023-04-19T11:25:20.693Z,52.65
2023-04-19T11:27:51.114Z,51.29
2023-04-19T11:32:57.490Z,51.03
2023-04-19T11:35:32.475Z,51.19
2023-04-19T11:38:01.563Z,51.16
2023-04-19T11:40:29.280Z,52.27
2023-04-19T11:43:02.151Z,53.37
2023-04-19T11:45:36.887Z,53.61
2023-04-19T11:48:13.322Z,53.71
2023-04-19T11:50:43.104Z,54.27
2023-04-19T11:53:15.883Z,54.78
2023-04-19T11:55:48.158Z,54.94
2023-04-19T11:58:26.821Z,55.00
2023-04-19T12:00:55.796Z,55.85
2023-04-19T12:03:26.342Z,56.01
2023-04-19T12:05:55.439Z,55.03
2023-04-19T12:08:34.909Z,54.39
2023-04-19T12:11:03.827Z,54.65
2023-04-19T12:13:32.560Z,55.53
2023-04-19T12:16:01.725Z,56.91
2023-04-19T12:18:43.854Z,58.09
2023-04-19T12:21:23.738Z,58.80
2023-04-19T12:23:53.784Z,58.55
2023-04-19T12:26:21.595Z,58.68
2023-04-19T12:28:49.531Z,58.48
2023-04-19T12:31:17.207Z,58.35
2023-04-19T12:33:45.155Z,57.82
2023-04-19T12:36:13.150Z,56.22
2023-04-19T12:38:41.325Z,56.11
2023-04-19T12:41:09.272Z,55.89
2023-04-19T12:43:37.540Z,56.14
2023-04-19T12:46:05.973Z,56.00
2023-04-19T12:48:34.071Z,55.21
2023-04-19T12:51:01.869Z,54.64
2023-04-19T12:53:29.931Z,54.34
2023-04-19T12:55:58.171Z,53.89
2023-04-19T12:58:28.111Z,54.00
2023-04-19T13:00:55.851Z,54.27
2023-04-19T13:03:23.876Z,54.71
2023-04-19T13:05:51.846Z,54.61
2023-04-19T13:08:28.155Z,54.53
2023-04-19T13:11:02.860Z,54.07
2023-04-19T13:13:31.113Z,53.92
2023-04-19T13:15:59.415Z,53.97
2023-04-19T13:18:27.704Z,53.18
2023-04-19T13:20:55.428Z,53.37
2023-04-19T13:23:23.354Z,52.94
2023-04-19T13:25:51.001Z,53.09
2023-04-19T13:28:18.901Z,53.74
2023-04-19T13:30:46.699Z,53.53
2023-04-19T13:33:14.637Z,54.09
2023-04-19T13:35:42.359Z,54.69
2023-04-19T13:38:10.346Z,54.21
2023-04-19T13:40:38.388Z,54.65
2023-04-19T13:43:06.474Z,54.73
2023-04-19T13:45:34.090Z,54.40
2023-04-19T13:48:02.029Z,53.05
2023-04-19T13:50:30.554Z,52.88
2023-04-19T13:52:58.459Z,52.50
2023-04-19T13:55:27.007Z,52.80
2023-04-19T13:57:54.901Z,52.98
2023-04-19T14:00:22.607Z,52.68
2023-04-19T14:02:52.413Z,51.79
2023-04-19T14:05:20.493Z,51.62
2023-04-19T14:07:48.604Z,51.53
2023-04-19T14:10:16.360Z,51.35
2023-04-19T14:12:45.096Z,51.48
2023-04-19T14:15:13.473Z,51.99
2023-04-19T14:17:41.576Z,52.55
2023-04-19T14:20:09.716Z,51.64
2023-04-19T14:22:37.659Z,51.98
2023-04-19T14:25:06.058Z,51.78
2023-04-19T14:27:34.336Z,51.64
2023-04-19T14:30:02.027Z,51.63
2023-04-19T14:32:30.231Z,51.16
2023-04-19T14:34:58.024Z,50.06
2023-04-19T14:37:26.107Z,50.87
2023-04-19T14:39:53.814Z,51.95
2023-04-19T14:42:23.058Z,52.91
2023-04-19T14:44:52.497Z,53.50
2023-04-19T14:47:21.299Z,54.42
2023-04-19T14:49:49.332Z,54.63
2023-04-19T14:52:17.620Z,54.93
2023-04-19T14:54:45.654Z,60.41
2023-04-19T14:57:14.143Z,65.95
2023-04-19T14:59:42.070Z,72.40
2023-04-19T15:02:10.928Z,77.65
2023-04-19T15:04:40.989Z,80.60
2023-04-19T15:07:09.616Z,81.54
2023-04-19T15:09:37.389Z,83.58
2023-04-19T15:12:05.878Z,86.18
2023-04-19T15:14:33.847Z,86.98
2023-04-19T15:17:02.034Z,88.04
2023-04-19T15:19:31.215Z,89.97
2023-04-19T15:21:59.148Z,91.60
2023-04-19T15:24:26.941Z,93.88
2023-04-19T15:26:54.904Z,96.04
2023-04-19T15:29:22.541Z,98.73
2023-04-19T15:31:50.637Z,99.99
2023-04-19T15:34:18.406Z,100.00
2023-04-19T15:36:46.364Z,100.00
2023-04-19T15:39:14.210Z,100.00
2023-04-19T15:41:42.241Z,100.00
2023-04-19T15:44:09.947Z,100.00
2023-04-19T15:46:38.089Z,100.00
2023-04-19T15:49:08.385Z,100.00
2023-04-19T15:51:36.443Z,100.00
2023-04-19T15:54:04.230Z,100.00
2023-04-19T15:56:32.514Z,100.00
2023-04-19T15:59:00.708Z,100.00
2023-04-19T16:01:28.769Z,100.00
2023-04-19T16:03:56.687Z,100.00
2023-04-19T16:06:24.804Z,100.00
2023-04-19T16:08:52.526Z,100.00
2023-04-19T16:11:20.738Z,100.00
2023-04-19T16:13:48.644Z,100.00
2023-04-19T16:16:16.546Z,100.00
2023-04-19T16:18:44.252Z,100.00
2023-04-19T16:21:12.138Z,100.00
2023-04-19T16:23:39.795Z,100.00
2023-04-19T16:26:07.802Z,100.00
2023-04-19T16:28:35.678Z,100.00
2023-04-19T16:31:03.576Z,100.00
2023-04-19T16:33:31.236Z,100.00
2023-04-19T16:35:59.264Z,100.00
2023-04-19T16:38:26.972Z,100.00
2023-04-19T16:40:55.889Z,100.00
2023-04-19T16:43:23.758Z,100.00
2023-04-19T16:45:51.745Z,100.00
2023-04-19T16:48:19.512Z,100.00
2023-04-19T16:50:47.676Z,100.00
2023-04-19T16:53:15.595Z,100.00
2023-04-19T16:55:43.517Z,100.00
2023-04-19T16:58:11.227Z,100.00
2023-04-19T17:00:39.325Z,100.00
2023-04-19T17:03:09.907Z,100.00
2023-04-19T17:05:38.097Z,100.00
2023-04-19T17:08:05.998Z,100.00
2023-04-19T17:10:33.976Z,100.00
2023-04-19T17:13:01.663Z,100.00
2023-04-19T17:15:30.004Z,100.00
2023-04-19T17:17:57.727Z,100.00
2023-04-19T17:20:25.688Z,100.00
2023-04-19T17:22:53.393Z,100.00
2023-04-19T17:25:22.417Z,100.00
2023-04-19T17:27:50.949Z,100.00
2023-04-19T17:30:18.945Z,100.00
2023-04-19T17:32:46.806Z,100.00
2023-04-19T17:35:15.957Z,100.00
2023-04-19T17:37:43.764Z,100.00
2023-04-19T17:40:12.129Z,100.00
2023-04-19T17:42:39.795Z,100.00
2023-04-19T17:45:11.115Z,100.00
2023-04-19T17:47:41.959Z,100.00
2023-04-19T17:50:14.290Z,100.00
2023-04-19T17:52:41.917Z,100.00
2023-04-19T17:55:10.271Z,100.00
2023-04-19T17:57:37.988Z,100.00
2023-04-19T18:00:07.820Z,100.00
2023-04-19T18:02:38.938Z,100.00
2023-04-19T18:05:07.910Z,100.00
2023-04-19T18:07:38.428Z,100.00
2023-04-19T18:10:07.771Z,100.00
2023-04-19T18:12:35.732Z,100.00
2023-04-19T18:15:04.078Z,100.00
2023-04-19T18:17:32.052Z,100.00
2023-04-19T18:20:00.096Z,100.00
2023-04-19T18:22:28.079Z,100.00
2023-04-19T18:24:56.631Z,100.00
2023-04-19T18:27:24.249Z,100.00
2023-04-19T18:29:52.551Z,100.00
2023-04-19T18:32:21.898Z,100.00
2023-04-19T18:34:49.914Z,100.00
2023-04-19T18:37:17.961Z,100.00
2023-04-19T18:39:46.335Z,100.00
2023-04-19T18:42:14.044Z,99.58
2023-04-19T18:47:12.562Z,96.87
2023-04-19T18:49:40.720Z,96.03
2023-04-19T18:52:08.330Z,95.25
2023-04-19T18:54:37.498Z,94.37
2023-04-19T18:57:22.834Z,92.64
2023-04-19T18:59:51.462Z,90.27
2023-04-19T19:02:19.244Z,88.53
2023-04-19T19:04:56.066Z,85.04
2023-04-19T19:09:57.108Z,81.90
2023-04-19T19:12:25.868Z,80.83
2023-04-19T19:14:53.554Z,80.01
2023-04-19T19:17:22.231Z,79.00
2023-04-19T19:19:50.151Z,78.73
2023-04-19T19:22:27.700Z,77.93
2023-04-19T19:24:56.752Z,77.78
2023-04-19T19:27:25.099Z,77.18
2023-04-19T19:29:52.835Z,76.69
2023-04-19T19:32:20.853Z,76.68
2023-04-19T19:37:20.761Z,76.05
2023-04-19T19:39:48.482Z,76.25
2023-04-19T19:42:17.361Z,75.92
2023-04-19T19:44:45.280Z,76.33
2023-04-19T19:47:16.199Z,76.26
2023-04-19T19:50:05.842Z,76.14
2023-04-19T19:52:33.090Z,76.83
2023-04-19T19:55:01.298Z,77.72
2023-04-19T19:58:16.429Z,78.56
2023-04-19T20:00:37.563Z,79.33
2023-04-19T20:03:07.276Z,80.17
2023-04-19T20:05:35.351Z,80.87
2023-04-19T20:08:12.456Z,81.54
2023-04-19T20:10:42.367Z,82.07
2023-04-19T20:13:11.975Z,82.08
2023-04-19T20:15:40.398Z,82.21
2023-04-19T20:18:08.526Z,82.53
2023-04-19T20:20:37.477Z,82.90
2023-04-19T20:23:06.010Z,82.58
2023-04-19T20:25:33.749Z,83.07
2023-04-19T20:28:02.312Z,83.00
2023-04-19T20:30:30.048Z,82.86
2023-04-19T20:32:58.129Z,82.95
2023-04-19T20:35:25.929Z,83.33
2023-04-19T20:37:54.623Z,83.52
2023-04-19T20:40:23.044Z,84.19
2023-04-19T20:42:51.542Z,85.11
2023-04-19T20:45:19.196Z,85.16
2023-04-19T20:47:47.208Z,85.56
2023-04-19T20:50:15.168Z,86.05
2023-04-19T20:52:43.034Z,86.72
2023-04-19T20:55:10.959Z,87.46
2023-04-19T20:57:38.935Z,87.29
2023-04-19T21:00:08.980Z,87.29
2023-04-19T21:02:37.280Z,87.54
2023-04-19T21:05:05.693Z,88.08
2023-04-19T21:07:33.705Z,88.37
2023-04-19T21:10:01.388Z,88.73
2023-04-19T21:12:29.357Z,88.90
2023-04-19T21:14:57.139Z,89.28
2023-04-19T21:17:25.132Z,89.91
2023-04-19T21:19:52.883Z,90.34
2023-04-19T21:22:20.809Z,90.21
2023-04-19T21:24:48.476Z,89.72
2023-04-19T21:27:16.546Z,89.55
2023-04-19T21:29:44.202Z,88.86
2023-04-19T21:32:12.204Z,87.27
2023-04-19T21:34:39.888Z,85.85
2023-04-19T21:37:07.883Z,85.16
2023-04-19T21:39:35.649Z,85.18
2023-04-19T21:42:03.560Z,84.96
2023-04-19T21:44:31.228Z,84.98
2023-04-19T21:46:59.224Z,84.27
2023-04-19T21:49:26.992Z,83.75
2023-04-19T21:51:56.850Z,83.01
2023-04-19T21:54:33.404Z,83.00
2023-04-19T21:57:02.929Z,81.66
2023-04-19T21:59:31.115Z,81.55
2023-04-19T22:01:59.663Z,81.39
2023-04-19T22:04:30.834Z,80.93
2023-04-19T22:07:02.881Z,81.14
2023-04-19T22:09:31.225Z,81.28
2023-04-19T22:12:00.175Z,80.89
2023-04-19T22:14:28.458Z,81.21
2023-04-19T22:16:56.870Z,81.29
2023-04-19T22:19:24.542Z,81.49
2023-04-19T22:21:53.529Z,81.04
2023-04-19T22:24:22.197Z,81.60
2023-04-19T22:26:50.994Z,81.86
2023-04-19T22:29:19.557Z,81.99
2023-04-19T22:31:47.654Z,81.99
2023-04-19T22:34:15.307Z,82.05
2023-04-19T22:36:43.193Z,81.87
2023-04-19T22:39:11.020Z,81.92
2023-04-19T22:41:39.085Z,81.80
2023-04-19T22:44:06.683Z,81.55
2023-04-19T22:46:36.718Z,81.72
2023-04-19T22:49:04.527Z,81.54
2023-04-19T22:51:32.436Z,82.09
2023-04-19T22:54:00.157Z,82.00
2023-04-19T22:56:28.051Z,82.42
2023-04-19T22:58:55.726Z,81.94
2023-04-19T23:01:23.742Z,81.69
2023-04-19T23:03:51.562Z,81.65
2023-04-19T23:06:19.515Z,81.97
2023-04-19T23:08:47.096Z,82.05
2023-04-19T23:11:14.962Z,81.57
2023-04-19T23:13:42.627Z,81.45
2023-04-19T23:16:11.437Z,81.26
2023-04-19T23:18:40.284Z,81.60
2023-04-19T23:21:08.641Z,82.09
2023-04-19T23:23:36.337Z,82.35
2023-04-19T23:26:04.344Z,82.38
2023-04-19T23:28:32.006Z,82.93
2023-04-19T23:30:59.900Z,83.66
2023-04-19T23:33:27.567Z,84.20
2023-04-19T23:35:55.841Z,84.25
2023-04-19T23:38:23.507Z,84.55
2023-04-19T23:40:51.496Z,84.42
2023-04-19T23:43:19.152Z,84.83
2023-04-19T23:45:47.070Z,85.07
2023-04-19T23:48:14.665Z,85.55
2023-04-19T23:50:44.766Z,85.88
2023-04-19T23:53:12.454Z,85.51
2023-04-19T23:55:40.426Z,85.36
2023-04-19T23:58:08.127Z,85.17
